Bendorf, Germania

12:06 AM CEST die 30o August, anno 2014 (GMT +0200)
IRHEINLA75 | Change Station
CLOSE
Current Station
Personal Weather Stations
Location: Neuwied, RHEINLAND-PFALZ
Elevation: 335 ft
Nearby Weather Stations

Elev 335 ft 50.46 °N, 7.46 °E | Updated 6 minutes ago

Clear
Serena
58.3 °F
Feels Like 58.3 °F
N
0.0
Ventus Variabilis Ventus from Inter Aquilonem et Zephyrus

Hodie
High -- | Low -- °F
--% Chance of Precip.
Yesterday
High -- | Low -- °F
Precip. -- in
6:40 AM 8:18 PM
Waxing Crescent, 17% visible
Pressio 30.09 in
Visibilitas -9999.0 milia passuum
Clouds
Frigus in quo Ros apparet 55 °F
Umor 90%
Rainfall 0.00 in
Snow Depth Not available.
UV Not available.
Pollen Not available.
Air Quality Not available.
Flu Activity Not available.
METAR EDFH 292150Z 29006KT CAVOK 15/13 Q1019

More Conditions Fewer Conditions

Pressio 30.09 in
Visibilitas -9999.0 milia passuum
Clouds
Frigus in quo Ros apparet 55 °F
Umor 90%
Rainfall 0.00 in
Snow Depth Not available.
UV Not available.
Pollen Not available.
Air Quality Not available.
Flu Activity Not available.
METAR EDFH 292150Z 29006KT CAVOK 15/13 Q1019

More Conditions Fewer Conditions

10-Day Weather Forecast

Almanac

Astronomy

Aug. 30, 2014 Rise Set
Actual Time 6:40 AM CEST 8:18 PM CEST
Civil Twilight 6:06 AM CEST 8:53 PM CEST
Nautical Twilight 5:24 AM CEST 9:34 PM CEST
Astronomical Twilight 4:37 AM CEST 10:20 PM CEST
Moon 11:44 AM CEST (8/30) 10:09 PM CEST (8/30)
Length Of Visible Light 14h 46m
Length of Day
13h 38m
Tomorrow will be 3m 39s shorter.
Waxing Crescent, 17% of the Moon is Illuminated
Aug 29
Waxing Crescent
Sep 2
First Quarter
Sep 8
Full
Sep 15
Last Quarter
Sep 24
New

Yesterday's Extremes

Country Highs Country Lows

Community

WunderPhotos

Upload Photos

1,748,354 photos uploaded!

Nearby

Snow Depth

Not available.

Earthquake Activity

City Distance Mag. Time & Date
No recent earthquake activity has been reported nearby.
Minimum magnitude displayed is 2.5.

Coastal Water Temperatures

Locus Calor
No Stations Reporting

Nearby Weather Stations